RYR82FL EBCI-LDZD
Flight info
| Callsign | RYR82FL |
|---|---|
| Flight time | 1h 36m |
| Altitude | 35000 |
| Route | RITAX M624 DIK M150 PITES DCT KRH DCT UTABA DCT BEMKI DCT ELMEM DCT DIRAB DCT VESAL DCT PEVAL DCT LOS |
| Aircraft | A320/M-SDE3FGHIRWY/LB1 |
Departure
| Time | 2026-04-23 14:29 |
|---|---|
| Airport | Brussels South Charleroi Airport (EBCI) |
Arrival
| Time | 2026-04-23 16:06 |
|---|---|
| Airport | Zadar Airport (LDZD) |
| Time | Latitude | Longitude | Altitude | Speed | Heading |
|---|---|---|---|---|---|
| 2026-04-23 14:04 | 50.46872 | 4.47097 | 585 ft | 0 kts | 335° |
| 2026-04-23 14:17 | 50.46856 | 4.47109 | 585 ft | 4 kts | 335° |
| 2026-04-23 14:17 | 50.46834 | 4.47126 | 585 ft | 4 kts | 309° |
| 2026-04-23 14:17 | 50.46829 | 4.47160 | 585 ft | 4 kts | 254° |
| 2026-04-23 14:18 | 50.46834 | 4.47184 | 586 ft | 1 kts | 245° |
| 2026-04-23 14:21 | 50.46833 | 4.47180 | 585 ft | 3 kts | 245° |
| 2026-04-23 14:21 | 50.46815 | 4.47117 | 586 ft | 10 kts | 246° |
| 2026-04-23 14:21 | 50.46773 | 4.46973 | 585 ft | 17 kts | 245° |
| 2026-04-23 14:22 | 50.46725 | 4.46810 | 587 ft | 12 kts | 243° |
| 2026-04-23 14:22 | 50.46661 | 4.46786 | 590 ft | 10 kts | 155° |
| 2026-04-23 14:22 | 50.46600 | 4.46778 | 592 ft | 12 kts | 230° |
| 2026-04-23 14:22 | 50.46557 | 4.46633 | 591 ft | 17 kts | 246° |
| 2026-04-23 14:23 | 50.46501 | 4.46442 | 589 ft | 22 kts | 245° |
| 2026-04-23 14:23 | 50.46436 | 4.46217 | 591 ft | 23 kts | 245° |
| 2026-04-23 14:23 | 50.46370 | 4.45988 | 595 ft | 22 kts | 245° |
| 2026-04-23 14:23 | 50.46305 | 4.45769 | 597 ft | 23 kts | 245° |
| 2026-04-23 14:24 | 50.46240 | 4.45543 | 599 ft | 23 kts | 245° |
| 2026-04-23 14:24 | 50.46170 | 4.45304 | 599 ft | 25 kts | 245° |
| 2026-04-23 14:24 | 50.46098 | 4.45055 | 596 ft | 23 kts | 245° |
| 2026-04-23 14:24 | 50.46032 | 4.44829 | 597 ft | 24 kts | 245° |
| 2026-04-23 14:25 | 50.45963 | 4.44590 | 599 ft | 24 kts | 245° |
| 2026-04-23 14:25 | 50.45884 | 4.44378 | 599 ft | 20 kts | 232° |
| 2026-04-23 14:25 | 50.45794 | 4.44200 | 598 ft | 21 kts | 232° |
| 2026-04-23 14:25 | 50.45767 | 4.44145 | 596 ft | 0 kts | 232° |
| 2026-04-23 14:27 | 50.45766 | 4.44142 | 595 ft | 2 kts | 232° |
| 2026-04-23 14:27 | 50.45739 | 4.44087 | 594 ft | 10 kts | 232° |
| 2026-04-23 14:27 | 50.45686 | 4.43993 | 594 ft | 12 kts | 215° |
| 2026-04-23 14:27 | 50.45627 | 4.44052 | 594 ft | 13 kts | 84° |
| 2026-04-23 14:28 | 50.45636 | 4.44087 | 594 ft | 0 kts | 65° |
| 2026-04-23 14:28 | 50.45726 | 4.44392 | 598 ft | 64 kts | 65° |
| 2026-04-23 14:28 | 50.45996 | 4.45323 | 591 ft | 121 kts | 65° |
| 2026-04-23 14:29 | 50.46409 | 4.46736 | 657 ft | 156 kts | 63° |
| 2026-04-23 14:29 | 50.46878 | 4.48211 | 1311 ft | 149 kts | 50° |
| 2026-04-23 14:29 | 50.47538 | 4.49441 | 1935 ft | 149 kts | 47° |
| 2026-04-23 14:29 | 50.48238 | 4.50693 | 2419 ft | 159 kts | 47° |
| 2026-04-23 14:30 | 50.49010 | 4.52080 | 2683 ft | 181 kts | 49° |
| 2026-04-23 14:30 | 50.49885 | 4.53672 | 2959 ft | 203 kts | 49° |
| 2026-04-23 14:30 | 50.50860 | 4.55459 | 3228 ft | 227 kts | 50° |
| 2026-04-23 14:30 | 50.51933 | 4.57434 | 3792 ft | 245 kts | 51° |
| 2026-04-23 14:31 | 50.53045 | 4.59517 | 4593 ft | 251 kts | 52° |
| 2026-04-23 14:31 | 50.54144 | 4.61692 | 5450 ft | 255 kts | 53° |
| 2026-04-23 14:31 | 50.55235 | 4.63912 | 6364 ft | 258 kts | 53° |
| 2026-04-23 14:31 | 50.56335 | 4.66169 | 7139 ft | 263 kts | 52° |
| 2026-04-23 14:32 | 50.57458 | 4.68469 | 7934 ft | 266 kts | 52° |
| 2026-04-23 14:32 | 50.58591 | 4.70787 | 8744 ft | 269 kts | 52° |
| 2026-04-23 14:32 | 50.59745 | 4.73147 | 9512 ft | 273 kts | 52° |
| 2026-04-23 14:32 | 50.60898 | 4.75503 | 10267 ft | 277 kts | 52° |
| 2026-04-23 14:33 | 50.62093 | 4.77938 | 10770 ft | 289 kts | 52° |
| 2026-04-23 14:33 | 50.63370 | 4.80554 | 10931 ft | 312 kts | 54° |
| 2026-04-23 14:33 | 50.64395 | 4.83706 | 11060 ft | 335 kts | 71° |
| 2026-04-23 14:33 | 50.64753 | 4.87437 | 11351 ft | 352 kts | 90° |
| 2026-04-23 14:34 | 50.64335 | 4.91234 | 11879 ft | 361 kts | 108° |
| 2026-04-23 14:34 | 50.63140 | 4.94736 | 12483 ft | 369 kts | 127° |
| 2026-04-23 14:34 | 50.61373 | 4.97707 | 13113 ft | 373 kts | 132° |
| 2026-04-23 14:34 | 50.59529 | 5.00622 | 13742 ft | 377 kts | 133° |
| 2026-04-23 14:35 | 50.57655 | 5.03554 | 14328 ft | 381 kts | 134° |
| 2026-04-23 14:35 | 50.55766 | 5.06499 | 14871 ft | 384 kts | 134° |
| 2026-04-23 14:35 | 50.53862 | 5.09469 | 15429 ft | 386 kts | 134° |
| 2026-04-23 14:35 | 50.51944 | 5.12459 | 15985 ft | 389 kts | 134° |
| 2026-04-23 14:36 | 50.50041 | 5.15433 | 16505 ft | 392 kts | 134° |
| 2026-04-23 14:36 | 50.48076 | 5.18511 | 17066 ft | 396 kts | 134° |
| 2026-04-23 14:36 | 50.46139 | 5.21536 | 17645 ft | 398 kts | 134° |
| 2026-04-23 14:36 | 50.44168 | 5.24610 | 18230 ft | 401 kts | 134° |
| 2026-04-23 14:37 | 50.42180 | 5.27709 | 18813 ft | 404 kts | 134° |
| 2026-04-23 14:37 | 50.40178 | 5.30825 | 19357 ft | 406 kts | 134° |
| 2026-04-23 14:37 | 50.38161 | 5.33955 | 19915 ft | 407 kts | 134° |
| 2026-04-23 14:37 | 50.36138 | 5.37092 | 20432 ft | 409 kts | 134° |
| 2026-04-23 14:38 | 50.34116 | 5.40225 | 20991 ft | 410 kts | 134° |
| 2026-04-23 14:38 | 50.32102 | 5.43343 | 21471 ft | 412 kts | 134° |
| 2026-04-23 14:38 | 50.30053 | 5.46511 | 21887 ft | 415 kts | 134° |
| 2026-04-23 14:38 | 50.27995 | 5.49687 | 22350 ft | 416 kts | 134° |
| 2026-04-23 14:39 | 50.25931 | 5.52866 | 22840 ft | 416 kts | 134° |
| 2026-04-23 14:39 | 50.23857 | 5.56061 | 23214 ft | 419 kts | 134° |
| 2026-04-23 14:39 | 50.21769 | 5.59277 | 23613 ft | 421 kts | 134° |
| 2026-04-23 14:39 | 50.19705 | 5.62453 | 24006 ft | 423 kts | 134° |
| 2026-04-23 14:40 | 50.17594 | 5.65692 | 24322 ft | 425 kts | 134° |
| 2026-04-23 14:40 | 50.15484 | 5.68927 | 24650 ft | 426 kts | 134° |
| 2026-04-23 14:40 | 50.13360 | 5.72180 | 24994 ft | 428 kts | 134° |
| 2026-04-23 14:40 | 50.11230 | 5.75427 | 25346 ft | 428 kts | 134° |
| 2026-04-23 14:41 | 50.09093 | 5.78685 | 25690 ft | 429 kts | 134° |
| 2026-04-23 14:41 | 50.06956 | 5.81941 | 26033 ft | 430 kts | 134° |
| 2026-04-23 14:41 | 50.04833 | 5.85147 | 26361 ft | 431 kts | 135° |
| 2026-04-23 14:41 | 50.02670 | 5.88386 | 26767 ft | 431 kts | 135° |
| 2026-04-23 14:42 | 50.00509 | 5.91608 | 27282 ft | 427 kts | 135° |
| 2026-04-23 14:42 | 49.98366 | 5.94795 | 27772 ft | 425 kts | 135° |
| 2026-04-23 14:42 | 49.96227 | 5.97969 | 28253 ft | 423 kts | 135° |
| 2026-04-23 14:42 | 49.94099 | 6.01133 | 28762 ft | 421 kts | 135° |
| 2026-04-23 14:43 | 49.92014 | 6.04231 | 29276 ft | 419 kts | 135° |
| 2026-04-23 14:43 | 49.89917 | 6.07345 | 29804 ft | 416 kts | 135° |
| 2026-04-23 14:43 | 49.87834 | 6.10456 | 30362 ft | 413 kts | 133° |
| 2026-04-23 14:43 | 49.85994 | 6.13853 | 30802 ft | 409 kts | 124° |
| 2026-04-23 14:44 | 49.84540 | 6.17645 | 31199 ft | 407 kts | 117° |
| 2026-04-23 14:44 | 49.83232 | 6.21532 | 31599 ft | 406 kts | 117° |
| 2026-04-23 14:44 | 49.81926 | 6.25400 | 32018 ft | 405 kts | 117° |
| 2026-04-23 14:44 | 49.80633 | 6.29214 | 32430 ft | 403 kts | 117° |
| 2026-04-23 14:45 | 49.79310 | 6.33097 | 32858 ft | 402 kts | 117° |
| 2026-04-23 14:45 | 49.78021 | 6.36864 | 33266 ft | 401 kts | 117° |
| 2026-04-23 14:45 | 49.76715 | 6.40676 | 33637 ft | 400 kts | 117° |
| 2026-04-23 14:45 | 49.75409 | 6.44479 | 34044 ft | 399 kts | 117° |
| 2026-04-23 14:46 | 49.74103 | 6.48280 | 34429 ft | 398 kts | 117° |
| 2026-04-23 14:46 | 49.72808 | 6.52050 | 34755 ft | 397 kts | 117° |
| 2026-04-23 14:46 | 49.71514 | 6.55826 | 35048 ft | 397 kts | 117° |
| 2026-04-23 14:46 | 49.70223 | 6.59599 | 35267 ft | 397 kts | 117° |
| 2026-04-23 14:47 | 49.67604 | 6.67241 | 35327 ft | 409 kts | 117° |
| 2026-04-23 14:47 | 49.64923 | 6.75024 | 35323 ft | 414 kts | 117° |
| 2026-04-23 14:48 | 49.62201 | 6.82882 | 35323 ft | 416 kts | 117° |
| 2026-04-23 14:48 | 49.59472 | 6.90755 | 35326 ft | 416 kts | 117° |
| 2026-04-23 14:49 | 49.56735 | 6.98636 | 35329 ft | 416 kts | 117° |
| 2026-04-23 14:49 | 49.54004 | 7.06447 | 35336 ft | 417 kts | 117° |
| 2026-04-23 14:50 | 49.51246 | 7.14323 | 35353 ft | 417 kts | 117° |
| 2026-04-23 14:50 | 49.48491 | 7.22178 | 35349 ft | 417 kts | 117° |
| 2026-04-23 14:51 | 49.45722 | 7.30043 | 35347 ft | 418 kts | 117° |
| 2026-04-23 14:51 | 49.42958 | 7.37861 | 35347 ft | 418 kts | 117° |
| 2026-04-23 14:52 | 49.40178 | 7.45713 | 35346 ft | 418 kts | 117° |
| 2026-04-23 14:52 | 49.37389 | 7.53568 | 35334 ft | 418 kts | 117° |
| 2026-04-23 14:53 | 49.34609 | 7.61368 | 35332 ft | 419 kts | 117° |
| 2026-04-23 14:53 | 49.31800 | 7.69212 | 35330 ft | 419 kts | 117° |
| 2026-04-23 14:54 | 49.28996 | 7.77023 | 35333 ft | 420 kts | 117° |
| 2026-04-23 14:54 | 49.26176 | 7.84859 | 35335 ft | 420 kts | 117° |
| 2026-04-23 14:55 | 49.23350 | 7.92700 | 35342 ft | 420 kts | 117° |
| 2026-04-23 14:55 | 49.20543 | 8.00468 | 35344 ft | 420 kts | 117° |
| 2026-04-23 14:56 | 49.17699 | 8.08282 | 35341 ft | 420 kts | 117° |
| 2026-04-23 14:56 | 49.14855 | 8.16094 | 35340 ft | 420 kts | 116° |
| 2026-04-23 14:57 | 49.12007 | 8.23899 | 35339 ft | 420 kts | 117° |
| 2026-04-23 14:57 | 49.09172 | 8.31641 | 35338 ft | 420 kts | 117° |
| 2026-04-23 14:58 | 49.06309 | 8.39431 | 35335 ft | 420 kts | 117° |
| 2026-04-23 14:58 | 49.03441 | 8.47200 | 35335 ft | 420 kts | 117° |
| 2026-04-23 14:59 | 49.00572 | 8.54900 | 35333 ft | 421 kts | 120° |
| 2026-04-23 14:59 | 48.96679 | 8.61594 | 35336 ft | 427 kts | 137° |
| 2026-04-23 15:00 | 48.92792 | 8.66282 | 35331 ft | 428 kts | 138° |
| 2026-04-23 15:00 | 48.87365 | 8.72833 | 35327 ft | 428 kts | 137° |
| 2026-04-23 15:01 | 48.82713 | 8.78439 | 35327 ft | 428 kts | 137° |
| 2026-04-23 15:01 | 48.78789 | 8.83143 | 35314 ft | 429 kts | 137° |
| 2026-04-23 15:02 | 48.74127 | 8.88729 | 35310 ft | 429 kts | 137° |
| 2026-04-23 15:02 | 48.69422 | 8.94351 | 35307 ft | 430 kts | 137° |
| 2026-04-23 15:03 | 48.64740 | 8.99922 | 35304 ft | 430 kts | 137° |
| 2026-04-23 15:03 | 48.60030 | 9.05528 | 35304 ft | 430 kts | 137° |
| 2026-04-23 15:04 | 48.55347 | 9.11087 | 35307 ft | 430 kts | 137° |
| 2026-04-23 15:04 | 48.50626 | 9.16669 | 35309 ft | 431 kts | 137° |
| 2026-04-23 15:05 | 48.45890 | 9.22254 | 35303 ft | 432 kts | 137° |
| 2026-04-23 15:05 | 48.41143 | 9.27842 | 35301 ft | 433 kts | 137° |
| 2026-04-23 15:06 | 48.36417 | 9.33400 | 35302 ft | 433 kts | 137° |
| 2026-04-23 15:06 | 48.31659 | 9.38974 | 35303 ft | 433 kts | 137° |
| 2026-04-23 15:07 | 48.26894 | 9.44542 | 35311 ft | 433 kts | 137° |
| 2026-04-23 15:07 | 48.22161 | 9.50151 | 35314 ft | 433 kts | 136° |
| 2026-04-23 15:08 | 48.17546 | 9.55882 | 35301 ft | 434 kts | 135° |
| 2026-04-23 15:09 | 48.10571 | 9.64566 | 35297 ft | 434 kts | 136° |
| 2026-04-23 15:09 | 48.05883 | 9.70302 | 35296 ft | 435 kts | 136° |
| 2026-04-23 15:10 | 48.01200 | 9.75991 | 35306 ft | 435 kts | 136° |
| 2026-04-23 15:10 | 47.96499 | 9.81707 | 35312 ft | 436 kts | 136° |
| 2026-04-23 15:11 | 47.91795 | 9.87440 | 35302 ft | 437 kts | 136° |
| 2026-04-23 15:11 | 47.87097 | 9.93131 | 35299 ft | 438 kts | 136° |
| 2026-04-23 15:12 | 47.82351 | 9.98864 | 35301 ft | 438 kts | 136° |
| 2026-04-23 15:12 | 47.77644 | 10.04556 | 35308 ft | 438 kts | 136° |
| 2026-04-23 15:13 | 47.72893 | 10.10273 | 35308 ft | 439 kts | 136° |
| 2026-04-23 15:13 | 47.68136 | 10.15977 | 35308 ft | 439 kts | 136° |
| 2026-04-23 15:14 | 47.63402 | 10.21649 | 35299 ft | 440 kts | 136° |
| 2026-04-23 15:14 | 47.58616 | 10.27366 | 35291 ft | 441 kts | 136° |
| 2026-04-23 15:15 | 47.53653 | 10.32803 | 35300 ft | 445 kts | 141° |
| 2026-04-23 15:15 | 47.48508 | 10.37802 | 35303 ft | 445 kts | 141° |
| 2026-04-23 15:16 | 47.43313 | 10.42826 | 35289 ft | 446 kts | 141° |
| 2026-04-23 15:16 | 47.38147 | 10.47822 | 35304 ft | 446 kts | 141° |
| 2026-04-23 15:17 | 47.32947 | 10.52839 | 35280 ft | 447 kts | 141° |
| 2026-04-23 15:17 | 47.27739 | 10.57870 | 35282 ft | 447 kts | 141° |
| 2026-04-23 15:18 | 47.22639 | 10.63116 | 35271 ft | 446 kts | 139° |
| 2026-04-23 15:18 | 47.17646 | 10.68486 | 35270 ft | 446 kts | 138° |
| 2026-04-23 15:19 | 47.12612 | 10.73835 | 35263 ft | 447 kts | 139° |
| 2026-04-23 15:19 | 47.07536 | 10.79138 | 35277 ft | 448 kts | 139° |
| 2026-04-23 15:20 | 47.02433 | 10.84429 | 35238 ft | 450 kts | 139° |
| 2026-04-23 15:20 | 46.97315 | 10.89748 | 35228 ft | 451 kts | 139° |
| 2026-04-23 15:21 | 46.92205 | 10.95055 | 35228 ft | 453 kts | 139° |
| 2026-04-23 15:21 | 46.87041 | 11.00388 | 35233 ft | 453 kts | 139° |
| 2026-04-23 15:22 | 46.81954 | 11.05721 | 35234 ft | 451 kts | 135° |
| 2026-04-23 15:22 | 46.77586 | 11.12136 | 35243 ft | 445 kts | 128° |
| 2026-04-23 15:23 | 46.73357 | 11.18733 | 35229 ft | 445 kts | 128° |
| 2026-04-23 15:23 | 46.69105 | 11.25336 | 35163 ft | 445 kts | 128° |
| 2026-04-23 15:24 | 46.64876 | 11.31887 | 35129 ft | 446 kts | 128° |
| 2026-04-23 15:24 | 46.60609 | 11.38481 | 35112 ft | 446 kts | 128° |
| 2026-04-23 15:25 | 46.56371 | 11.45019 | 35127 ft | 446 kts | 128° |
| 2026-04-23 15:25 | 46.52115 | 11.51575 | 35122 ft | 445 kts | 128° |
| 2026-04-23 15:26 | 46.47867 | 11.58098 | 35124 ft | 444 kts | 128° |
| 2026-04-23 15:26 | 46.43604 | 11.64614 | 35132 ft | 444 kts | 128° |
| 2026-04-23 15:27 | 46.39365 | 11.71080 | 35163 ft | 444 kts | 128° |
| 2026-04-23 15:27 | 46.35040 | 11.77528 | 35166 ft | 446 kts | 129° |
| 2026-04-23 15:28 | 46.30661 | 11.83855 | 35158 ft | 447 kts | 130° |
| 2026-04-23 15:28 | 46.26237 | 11.90216 | 35153 ft | 448 kts | 130° |
| 2026-04-23 15:29 | 46.21851 | 11.96566 | 35157 ft | 448 kts | 129° |
| 2026-04-23 15:29 | 46.17442 | 12.02952 | 35174 ft | 448 kts | 129° |
| 2026-04-23 15:30 | 46.13050 | 12.09297 | 35155 ft | 449 kts | 129° |
| 2026-04-23 15:30 | 46.08617 | 12.15668 | 35140 ft | 450 kts | 129° |
| 2026-04-23 15:31 | 46.04172 | 12.22051 | 35149 ft | 451 kts | 129° |
| 2026-04-23 15:31 | 45.99736 | 12.28412 | 35151 ft | 452 kts | 129° |
| 2026-04-23 15:32 | 45.95271 | 12.34792 | 35173 ft | 452 kts | 129° |
| 2026-04-23 15:32 | 45.90819 | 12.41120 | 35165 ft | 453 kts | 129° |
| 2026-04-23 15:33 | 45.86343 | 12.47483 | 35160 ft | 453 kts | 130° |
| 2026-04-23 15:33 | 45.81865 | 12.53848 | 35159 ft | 453 kts | 130° |
| 2026-04-23 15:34 | 45.77374 | 12.60198 | 35155 ft | 453 kts | 130° |
| 2026-04-23 15:34 | 45.72904 | 12.66504 | 35179 ft | 453 kts | 130° |
| 2026-04-23 15:35 | 45.68412 | 12.72831 | 35164 ft | 454 kts | 130° |
| 2026-04-23 15:35 | 45.63894 | 12.79186 | 35162 ft | 454 kts | 130° |
| 2026-04-23 15:36 | 45.59380 | 12.85507 | 35165 ft | 454 kts | 130° |
| 2026-04-23 15:36 | 45.54882 | 12.91793 | 35170 ft | 454 kts | 130° |
| 2026-04-23 15:37 | 45.50357 | 12.98104 | 35189 ft | 454 kts | 131° |
| 2026-04-23 15:37 | 45.46592 | 13.03345 | 35180 ft | 455 kts | 131° |
| 2026-04-23 15:38 | 45.41307 | 13.10690 | 35178 ft | 456 kts | 131° |
| 2026-04-23 15:38 | 45.36761 | 13.16986 | 35181 ft | 456 kts | 131° |
| 2026-04-23 15:39 | 45.32211 | 13.23264 | 35181 ft | 456 kts | 131° |
| 2026-04-23 15:39 | 45.27822 | 13.29684 | 35187 ft | 454 kts | 127° |
| 2026-04-23 15:40 | 45.23674 | 13.36435 | 35180 ft | 453 kts | 126° |
| 2026-04-23 15:40 | 45.19545 | 13.43219 | 35177 ft | 454 kts | 127° |
| 2026-04-23 15:41 | 45.15372 | 13.49888 | 35179 ft | 455 kts | 128° |
| 2026-04-23 15:41 | 45.11125 | 13.56558 | 35198 ft | 455 kts | 128° |
| 2026-04-23 15:42 | 45.06878 | 13.63218 | 35181 ft | 455 kts | 128° |
| 2026-04-23 15:42 | 45.02647 | 13.69878 | 35175 ft | 455 kts | 128° |
| 2026-04-23 15:43 | 44.98447 | 13.76492 | 35040 ft | 453 kts | 128° |
| 2026-04-23 15:43 | 44.96343 | 13.79790 | 34802 ft | 451 kts | 128° |
| 2026-04-23 15:43 | 44.94236 | 13.83087 | 34567 ft | 451 kts | 128° |
| 2026-04-23 15:43 | 44.92132 | 13.86376 | 34345 ft | 451 kts | 128° |
| 2026-04-23 15:44 | 44.90020 | 13.89674 | 34101 ft | 452 kts | 128° |
| 2026-04-23 15:44 | 44.87933 | 13.92928 | 33829 ft | 453 kts | 128° |
| 2026-04-23 15:44 | 44.85813 | 13.96228 | 33354 ft | 454 kts | 128° |
| 2026-04-23 15:44 | 44.83680 | 13.99549 | 32424 ft | 458 kts | 128° |
| 2026-04-23 15:45 | 44.81552 | 14.02850 | 31933 ft | 452 kts | 128° |
| 2026-04-23 15:45 | 44.79437 | 14.06127 | 31359 ft | 449 kts | 128° |
| 2026-04-23 15:45 | 44.77342 | 14.09374 | 30781 ft | 446 kts | 128° |
| 2026-04-23 15:45 | 44.75289 | 14.12555 | 30227 ft | 443 kts | 128° |
| 2026-04-23 15:46 | 44.73220 | 14.15760 | 29639 ft | 439 kts | 128° |
| 2026-04-23 15:46 | 44.71165 | 14.18932 | 29066 ft | 435 kts | 128° |
| 2026-04-23 15:46 | 44.69816 | 14.21011 | 28699 ft | 432 kts | 128° |
| 2026-04-23 15:46 | 44.67145 | 14.25126 | 27978 ft | 426 kts | 128° |
| 2026-04-23 15:47 | 44.65157 | 14.28187 | 27449 ft | 422 kts | 128° |
| 2026-04-23 15:47 | 44.63841 | 14.30210 | 27095 ft | 420 kts | 128° |
| 2026-04-23 15:47 | 44.61872 | 14.33232 | 26568 ft | 417 kts | 128° |
| 2026-04-23 15:47 | 44.59922 | 14.36224 | 26057 ft | 413 kts | 128° |
| 2026-04-23 15:48 | 44.57979 | 14.39203 | 25540 ft | 411 kts | 128° |
| 2026-04-23 15:48 | 44.56056 | 14.42150 | 25066 ft | 409 kts | 128° |
| 2026-04-23 15:48 | 44.54138 | 14.45085 | 24571 ft | 407 kts | 128° |
| 2026-04-23 15:48 | 44.52186 | 14.47902 | 24108 ft | 408 kts | 134° |
| 2026-04-23 15:49 | 44.50028 | 14.50494 | 23622 ft | 407 kts | 135° |
| 2026-04-23 15:49 | 44.47880 | 14.53057 | 23127 ft | 404 kts | 135° |
| 2026-04-23 15:49 | 44.45745 | 14.55600 | 22670 ft | 401 kts | 135° |
| 2026-04-23 15:49 | 44.43619 | 14.58130 | 22206 ft | 398 kts | 135° |
| 2026-04-23 15:50 | 44.41514 | 14.60631 | 21744 ft | 396 kts | 135° |
| 2026-04-23 15:50 | 44.39408 | 14.63127 | 21266 ft | 394 kts | 135° |
| 2026-04-23 15:50 | 44.37343 | 14.65573 | 20800 ft | 392 kts | 135° |
| 2026-04-23 15:50 | 44.35270 | 14.68032 | 20307 ft | 390 kts | 135° |
| 2026-04-23 15:51 | 44.33320 | 14.70629 | 19811 ft | 383 kts | 127° |
| 2026-04-23 15:51 | 44.31573 | 14.73446 | 19313 ft | 381 kts | 126° |
| 2026-04-23 15:51 | 44.29836 | 14.76234 | 18814 ft | 379 kts | 127° |
| 2026-04-23 15:51 | 44.28125 | 14.78968 | 18299 ft | 378 kts | 127° |
| 2026-04-23 15:52 | 44.26399 | 14.81723 | 17764 ft | 375 kts | 127° |
| 2026-04-23 15:52 | 44.24688 | 14.84450 | 17268 ft | 371 kts | 127° |
| 2026-04-23 15:52 | 44.22992 | 14.87151 | 16764 ft | 367 kts | 127° |
| 2026-04-23 15:52 | 44.21316 | 14.89821 | 16268 ft | 363 kts | 127° |
| 2026-04-23 15:53 | 44.19678 | 14.92430 | 15784 ft | 360 kts | 127° |
| 2026-04-23 15:53 | 44.18026 | 14.95057 | 15294 ft | 357 kts | 127° |
| 2026-04-23 15:53 | 44.16395 | 14.97650 | 14807 ft | 354 kts | 127° |
| 2026-04-23 15:53 | 44.14782 | 15.00214 | 14348 ft | 351 kts | 127° |
| 2026-04-23 15:54 | 44.13167 | 15.02779 | 13844 ft | 350 kts | 127° |
| 2026-04-23 15:54 | 44.11566 | 15.05320 | 13314 ft | 347 kts | 126° |
| 2026-04-23 15:54 | 44.10000 | 15.07804 | 12850 ft | 343 kts | 126° |
| 2026-04-23 15:54 | 44.08429 | 15.10295 | 12387 ft | 340 kts | 126° |
| 2026-04-23 15:55 | 44.06870 | 15.12768 | 11917 ft | 337 kts | 126° |
| 2026-04-23 15:55 | 44.05324 | 15.15218 | 11458 ft | 335 kts | 126° |
| 2026-04-23 15:55 | 44.03806 | 15.17615 | 11004 ft | 333 kts | 126° |
| 2026-04-23 15:55 | 44.02257 | 15.20054 | 10561 ft | 331 kts | 126° |
| 2026-04-23 15:56 | 44.00772 | 15.22382 | 10420 ft | 319 kts | 126° |
| 2026-04-23 15:56 | 43.99342 | 15.24615 | 10229 ft | 300 kts | 126° |
| 2026-04-23 15:56 | 43.97975 | 15.26759 | 9770 ft | 295 kts | 125° |
| 2026-04-23 15:56 | 43.96628 | 15.28884 | 9608 ft | 289 kts | 125° |
| 2026-04-23 15:57 | 43.95314 | 15.30960 | 9397 ft | 289 kts | 126° |
| 2026-04-23 15:57 | 43.93989 | 15.33050 | 9029 ft | 288 kts | 126° |
| 2026-04-23 15:57 | 43.92664 | 15.35133 | 8654 ft | 287 kts | 126° |
| 2026-04-23 15:57 | 43.91335 | 15.37216 | 8269 ft | 288 kts | 126° |
| 2026-04-23 15:58 | 43.90018 | 15.39280 | 7892 ft | 288 kts | 126° |
| 2026-04-23 15:58 | 43.88704 | 15.41339 | 7519 ft | 281 kts | 125° |
| 2026-04-23 15:58 | 43.87729 | 15.43603 | 7138 ft | 269 kts | 103° |
| 2026-04-23 15:58 | 43.87495 | 15.46099 | 6778 ft | 254 kts | 80° |
| 2026-04-23 15:59 | 43.87933 | 15.48372 | 6408 ft | 238 kts | 59° |
| 2026-04-23 15:59 | 43.88878 | 15.50172 | 6040 ft | 225 kts | 43° |
| 2026-04-23 15:59 | 43.89960 | 15.51690 | 5717 ft | 218 kts | 44° |
| 2026-04-23 15:59 | 43.91005 | 15.53174 | 5401 ft | 217 kts | 44° |
| 2026-04-23 16:00 | 43.92047 | 15.54663 | 5074 ft | 211 kts | 44° |
| 2026-04-23 16:00 | 43.93148 | 15.55913 | 4759 ft | 201 kts | 22° |
| 2026-04-23 16:00 | 43.94507 | 15.56097 | 4474 ft | 199 kts | 346° |
| 2026-04-23 16:00 | 43.95671 | 15.55082 | 4198 ft | 203 kts | 312° |
| 2026-04-23 16:01 | 43.96548 | 15.53578 | 3918 ft | 200 kts | 318° |
| 2026-04-23 16:01 | 43.97531 | 15.52249 | 3624 ft | 193 kts | 321° |
| 2026-04-23 16:01 | 43.98497 | 15.51027 | 3383 ft | 182 kts | 321° |
| 2026-04-23 16:01 | 43.99396 | 15.49888 | 3149 ft | 174 kts | 320° |
| 2026-04-23 16:02 | 44.00283 | 15.48751 | 2890 ft | 173 kts | 317° |
| 2026-04-23 16:02 | 44.01156 | 15.47616 | 2658 ft | 170 kts | 316° |
| 2026-04-23 16:02 | 44.02009 | 15.46497 | 2432 ft | 167 kts | 315° |
| 2026-04-23 16:02 | 44.02848 | 15.45388 | 2206 ft | 166 kts | 315° |
| 2026-04-23 16:03 | 44.03663 | 15.44307 | 1989 ft | 156 kts | 314° |
| 2026-04-23 16:03 | 44.04401 | 15.43325 | 1798 ft | 139 kts | 313° |
| 2026-04-23 16:03 | 44.05083 | 15.42413 | 1633 ft | 133 kts | 313° |
| 2026-04-23 16:03 | 44.05738 | 15.41535 | 1461 ft | 129 kts | 313° |
| 2026-04-23 16:04 | 44.06379 | 15.40671 | 1285 ft | 129 kts | 314° |
| 2026-04-23 16:04 | 44.07015 | 15.39822 | 1108 ft | 127 kts | 314° |
| 2026-04-23 16:04 | 44.07647 | 15.38969 | 937 ft | 127 kts | 314° |
| 2026-04-23 16:04 | 44.08278 | 15.38116 | 782 ft | 126 kts | 314° |
| 2026-04-23 16:05 | 44.08697 | 15.37555 | 662 ft | 126 kts | 312° |
| 2026-04-23 16:05 | 44.09542 | 15.36412 | 449 ft | 128 kts | 311° |
| 2026-04-23 16:05 | 44.10181 | 15.35546 | 303 ft | 125 kts | 313° |
| 2026-04-23 16:05 | 44.10726 | 15.34810 | 292 ft | 92 kts | 315° |
| 2026-04-23 16:06 | 44.11032 | 15.34396 | 287 ft | 48 kts | 315° |
| 2026-04-23 16:06 | 44.11252 | 15.34098 | 288 ft | 41 kts | 315° |
| 2026-04-23 16:06 | 44.11449 | 15.33833 | 292 ft | 38 kts | 316° |
| 2026-04-23 16:06 | 44.11602 | 15.33626 | 291 ft | 18 kts | 314° |
| 2026-04-23 16:07 | 44.11576 | 15.33483 | 295 ft | 18 kts | 227° |
| 2026-04-23 16:07 | 44.11491 | 15.33387 | 293 ft | 14 kts | 175° |
| 2026-04-23 16:07 | 44.11416 | 15.33473 | 290 ft | 15 kts | 135° |
| 2026-04-23 16:07 | 44.11336 | 15.33582 | 290 ft | 17 kts | 135° |
| 2026-04-23 16:08 | 44.11239 | 15.33712 | 288 ft | 21 kts | 136° |
| 2026-04-23 16:08 | 44.11133 | 15.33858 | 288 ft | 22 kts | 135° |
| 2026-04-23 16:08 | 44.11018 | 15.34014 | 288 ft | 24 kts | 136° |
| 2026-04-23 16:08 | 44.10894 | 15.34181 | 288 ft | 26 kts | 136° |
| 2026-04-23 16:09 | 44.10762 | 15.34360 | 288 ft | 27 kts | 136° |
| 2026-04-23 16:09 | 44.10623 | 15.34549 | 288 ft | 29 kts | 136° |
| 2026-04-23 16:09 | 44.10481 | 15.34740 | 288 ft | 29 kts | 136° |
| 2026-04-23 16:09 | 44.10352 | 15.34914 | 288 ft | 22 kts | 136° |
| 2026-04-23 16:10 | 44.10240 | 15.35066 | 288 ft | 23 kts | 135° |
| 2026-04-23 16:10 | 44.10121 | 15.35229 | 288 ft | 25 kts | 135° |
| 2026-04-23 16:10 | 44.09993 | 15.35403 | 288 ft | 26 kts | 135° |
| 2026-04-23 16:10 | 44.09899 | 15.35521 | 287 ft | 17 kts | 154° |
| 2026-04-23 16:11 | 44.09783 | 15.35536 | 284 ft | 11 kts | 177° |
| 2026-04-23 16:11 | 44.09702 | 15.35540 | 283 ft | 13 kts | 178° |
| 2026-04-23 16:11 | 44.09670 | 15.35542 | 283 ft | 0 kts | 178° |
| 2026-04-23 16:12 | 44.09654 | 15.35537 | 283 ft | 3 kts | 208° |
| 2026-04-23 16:12 | 44.09658 | 15.35511 | 287 ft | 4 kts | 309° |
| 2026-04-23 16:12 | 44.09672 | 15.35496 | 286 ft | 0 kts | 324° |